createdAt,value
2019-02-20T00:03:11.391Z,35.90
2019-02-20T00:07:16.447Z,35.60
2019-02-20T00:11:21.523Z,30.53
2019-02-20T00:15:26.607Z,32.97
2019-02-20T00:19:31.616Z,34.70
2019-02-20T00:23:36.708Z,33.20
2019-02-20T00:27:41.711Z,36.23
2019-02-20T00:31:46.720Z,41.23
2019-02-20T00:35:51.719Z,41.87
2019-02-20T00:39:56.715Z,36.93
2019-02-20T00:44:03.360Z,38.70
2019-02-20T00:48:18.693Z,33.70
2019-02-20T00:52:34.072Z,37.37
2019-02-20T00:56:39.116Z,38.07
2019-02-20T01:00:44.096Z,34.43
2019-02-20T01:04:49.107Z,42.73
2019-02-20T01:08:54.164Z,40.87
2019-02-20T01:12:59.176Z,37.00
2019-02-20T01:17:04.237Z,38.27
2019-02-20T01:21:09.208Z,39.93
2019-02-20T01:25:14.216Z,40.20
2019-02-20T01:29:19.221Z,42.63
2019-02-20T01:33:24.227Z,39.30
2019-02-20T01:37:29.239Z,38.60
2019-02-20T01:41:34.235Z,41.10
2019-02-20T01:45:39.236Z,38.57
2019-02-20T01:49:44.245Z,42.57
2019-02-20T01:53:49.248Z,37.90
2019-02-20T01:57:54.252Z,34.27
2019-02-20T02:01:59.286Z,44.43
2019-02-20T02:06:04.284Z,41.63
2019-02-20T02:10:09.715Z,38.40
2019-02-20T02:14:14.723Z,38.93
2019-02-20T02:18:19.732Z,40.80
2019-02-20T02:22:24.744Z,42.80
2019-02-20T02:26:29.791Z,44.73
2019-02-20T02:30:34.871Z,48.10
2019-02-20T02:34:39.875Z,43.00
2019-02-20T02:38:44.885Z,39.87
2019-02-20T02:42:49.891Z,41.00
2019-02-20T02:46:54.885Z,43.37
2019-02-20T02:50:59.902Z,47.57
2019-02-20T02:55:05.843Z,40.63
2019-02-20T02:59:10.869Z,45.40
2019-02-20T03:03:15.915Z,39.90
2019-02-20T03:07:20.910Z,38.67
2019-02-20T03:11:25.976Z,41.03
2019-02-20T03:15:30.984Z,39.43
2019-02-20T03:19:35.987Z,43.00
2019-02-20T03:23:41.005Z,41.67
2019-02-20T03:27:46.009Z,31.40
2019-02-20T03:31:51.095Z,46.87
2019-02-20T03:35:56.117Z,38.00
2019-02-20T03:40:01.177Z,34.93
2019-02-20T03:44:06.299Z,44.27
2019-02-20T03:48:11.303Z,45.57
2019-02-20T03:52:16.290Z,42.03
2019-02-20T03:56:21.297Z,43.70
2019-02-20T04:00:26.300Z,41.33
2019-02-20T04:04:31.385Z,39.50
2019-02-20T04:08:36.383Z,36.90
2019-02-20T04:12:41.371Z,37.87
2019-02-20T04:16:46.375Z,39.47
2019-02-20T04:20:51.392Z,35.90
2019-02-20T04:24:56.398Z,39.60
2019-02-20T04:29:01.614Z,41.27
2019-02-20T04:33:06.695Z,40.47
2019-02-20T04:37:11.685Z,37.77
2019-02-20T04:41:16.789Z,33.57
2019-02-20T04:45:21.795Z,35.73
2019-02-20T04:49:26.838Z,39.97
2019-02-20T04:53:31.844Z,32.40
2019-02-20T04:57:37.800Z,40.43
2019-02-20T05:01:43.953Z,37.70
2019-02-20T05:05:48.940Z,37.67
2019-02-20T05:09:54.043Z,38.60
2019-02-20T05:13:59.059Z,33.23
2019-02-20T05:18:04.045Z,42.40
2019-02-20T05:22:09.050Z,39.97
2019-02-20T05:26:14.061Z,35.57
2019-02-20T05:30:19.071Z,42.17
2019-02-20T05:34:24.108Z,41.13
2019-02-20T05:38:29.103Z,40.37
2019-02-20T05:42:34.108Z,38.77
2019-02-20T05:46:39.111Z,47.53
2019-02-20T05:50:44.261Z,40.37
2019-02-20T05:54:49.253Z,42.13
2019-02-20T05:58:54.346Z,41.80
2019-02-20T06:02:59.330Z,39.33
2019-02-20T06:07:04.344Z,42.57
2019-02-20T06:11:14.862Z,41.83
2019-02-20T06:15:15.981Z,45.97
2019-02-20T06:19:21.044Z,39.77
2019-02-20T06:23:26.032Z,41.53
2019-02-20T06:27:31.037Z,37.57
2019-02-20T06:31:36.035Z,42.70
2019-02-20T06:35:41.116Z,43.50
2019-02-20T06:39:46.213Z,44.20
2019-02-20T06:43:51.238Z,42.53
2019-02-20T06:47:56.417Z,39.33
2019-02-20T06:52:01.452Z,35.23
2019-02-20T06:56:06.639Z,44.77
2019-02-20T07:00:13.827Z,38.50
2019-02-20T07:04:18.862Z,46.87
2019-02-20T07:08:41.788Z,39.97
2019-02-20T07:12:49.867Z,38.07
2019-02-20T07:17:01.192Z,39.07
2019-02-20T07:21:18.295Z,40.17
2019-02-20T07:25:50.632Z,41.40
2019-02-20T07:30:00.532Z,42.10
2019-02-20T07:34:05.664Z,43.03
2019-02-20T07:38:10.670Z,39.80
2019-02-20T07:42:15.756Z,38.00
2019-02-20T07:46:20.780Z,57.63
2019-02-20T07:50:25.781Z,38.40
2019-02-20T07:54:30.767Z,38.00
2019-02-20T07:58:35.783Z,38.40
2019-02-20T08:02:40.794Z,36.20
2019-02-20T08:06:46.009Z,32.67
2019-02-20T08:10:51.041Z,32.40
2019-02-20T08:14:56.413Z,35.70
2019-02-20T08:19:01.666Z,36.03
2019-02-20T08:23:06.942Z,37.60
2019-02-20T08:27:13.117Z,34.23
2019-02-20T08:31:18.120Z,33.20
2019-02-20T08:35:23.199Z,34.03
2019-02-20T08:39:28.657Z,32.57
2019-02-20T08:43:33.959Z,33.60
2019-02-20T08:47:39.227Z,33.10
2019-02-20T08:51:44.524Z,31.07
2019-02-20T08:55:49.856Z,33.17
2019-02-20T08:59:55.124Z,27.63
2019-02-20T09:04:00.445Z,35.33
2019-02-20T09:08:05.742Z,26.47
2019-02-20T09:12:11.051Z,27.90
2019-02-20T09:16:16.341Z,29.30
2019-02-20T09:20:21.624Z,28.87
2019-02-20T09:24:26.918Z,28.87
2019-02-20T09:28:32.219Z,31.20
2019-02-20T09:32:37.629Z,24.40
2019-02-20T09:36:42.920Z,31.23
2019-02-20T09:40:48.237Z,23.57
2019-02-20T09:44:53.501Z,33.33
2019-02-20T09:48:58.805Z,23.50
2019-02-20T09:53:04.100Z,26.77
2019-02-20T09:57:09.387Z,23.03
2019-02-20T10:01:14.714Z,23.43
2019-02-20T10:05:19.983Z,25.83
2019-02-20T10:09:25.260Z,20.13
2019-02-20T10:13:30.548Z,25.67
2019-02-20T10:17:35.876Z,25.10
2019-02-20T10:21:41.224Z,23.83
2019-02-20T10:25:47.658Z,20.47
2019-02-20T10:29:52.947Z,20.47
2019-02-20T10:33:58.232Z,25.73
2019-02-20T10:38:03.571Z,21.53
2019-02-20T10:42:08.904Z,21.53
2019-02-20T10:46:14.195Z,23.27
2019-02-20T10:50:19.505Z,22.67
2019-02-20T10:54:24.801Z,27.63
2019-02-20T10:58:30.075Z,26.17
2019-02-20T11:02:35.367Z,47.07
2019-02-20T11:06:40.835Z,26.53
2019-02-20T11:10:46.136Z,21.40
2019-02-20T11:14:51.480Z,24.17
2019-02-20T11:18:56.975Z,24.60
2019-02-20T11:23:02.276Z,23.00
2019-02-20T11:27:07.584Z,27.00
2019-02-20T11:31:12.847Z,22.57
2019-02-20T11:35:18.222Z,25.67
2019-02-20T11:39:23.522Z,24.03
2019-02-20T11:43:28.885Z,26.93
2019-02-20T11:47:34.174Z,24.97
2019-02-20T11:51:39.452Z,23.63
2019-02-20T11:55:44.815Z,28.43
2019-02-20T11:59:50.096Z,27.23
2019-02-20T12:03:55.420Z,23.90
2019-02-20T12:08:00.720Z,17.27
2019-02-20T12:12:06.144Z,22.87
2019-02-20T12:16:11.456Z,24.43
2019-02-20T12:20:17.832Z,26.63
2019-02-20T12:24:23.124Z,22.93
2019-02-20T12:28:28.496Z,26.60
2019-02-20T12:32:33.803Z,24.60
2019-02-20T12:36:39.076Z,21.23
2019-02-20T12:40:44.372Z,26.23
2019-02-20T12:44:49.676Z,25.33
2019-02-20T12:48:55.000Z,31.13
2019-02-20T12:53:00.532Z,25.60
2019-02-20T12:57:05.800Z,23.57
2019-02-20T13:01:11.244Z,32.57
2019-02-20T13:05:16.544Z,27.80
2019-02-20T13:09:22.116Z,24.27
2019-02-20T13:13:27.420Z,20.40
2019-02-20T13:17:33.833Z,28.20
2019-02-20T13:21:39.074Z,30.30
2019-02-20T13:25:44.346Z,23.53
2019-02-20T13:29:49.781Z,27.93
2019-02-20T13:33:55.079Z,24.50
2019-02-20T13:38:00.361Z,27.57
2019-02-20T13:42:05.632Z,22.87
2019-02-20T13:46:11.499Z,20.47
2019-02-20T13:50:16.958Z,21.93
2019-02-20T13:54:23.234Z,24.23
2019-02-20T13:58:28.687Z,28.00
2019-02-20T14:02:34.004Z,25.27
2019-02-20T14:06:39.295Z,24.37
2019-02-20T14:10:45.038Z,27.73
2019-02-20T14:14:50.312Z,27.67
2019-02-20T14:18:55.604Z,32.07
2019-02-20T14:23:00.895Z,27.27
2019-02-20T14:27:10.865Z,24.43
2019-02-20T14:31:13.129Z,25.70
2019-02-20T14:35:18.409Z,24.80
2019-02-20T14:39:23.696Z,25.00
2019-02-20T14:43:28.984Z,24.13
2019-02-20T14:47:34.315Z,23.53
2019-02-20T14:51:39.695Z,29.40
2019-02-20T14:55:44.978Z,26.90
2019-02-20T14:59:50.333Z,24.83
2019-02-20T15:03:55.648Z,17.00
2019-02-20T15:08:02.162Z,23.17
2019-02-20T15:12:07.574Z,23.13
2019-02-20T15:16:12.843Z,22.10
2019-02-20T15:20:18.224Z,23.00
2019-02-20T15:24:26.419Z,28.83
2019-02-20T15:28:33.425Z,24.23
2019-02-20T15:32:38.575Z,24.27
2019-02-20T15:36:43.851Z,20.73
2019-02-20T15:40:49.135Z,19.73
2019-02-20T15:44:54.576Z,26.17
2019-02-20T15:48:59.869Z,20.37
2019-02-20T15:53:06.909Z,19.20
2019-02-20T15:57:12.333Z,16.57
2019-02-20T16:01:17.849Z,19.13
2019-02-20T16:05:22.848Z,19.67
2019-02-20T16:09:28.127Z,19.70
2019-02-20T16:13:33.112Z,17.73
2019-02-20T16:17:38.400Z,18.70
2019-02-20T16:21:43.683Z,24.00
2019-02-20T16:25:48.968Z,24.53
2019-02-20T16:29:55.235Z,26.07
2019-02-20T16:34:00.371Z,30.85
2019-02-20T16:38:05.974Z,25.07
2019-02-20T16:42:11.464Z,20.30
2019-02-20T16:46:17.013Z,25.90
2019-02-20T16:50:22.056Z,36.63
2019-02-20T16:54:27.064Z,28.62
2019-02-20T16:58:32.043Z,26.83
2019-02-20T17:02:37.131Z,28.90
2019-02-20T17:06:45.340Z,31.20
2019-02-20T17:10:50.355Z,34.30
2019-02-20T17:14:55.383Z,35.65
2019-02-20T17:19:00.396Z,35.40
2019-02-20T17:23:05.551Z,33.97
2019-02-20T17:27:10.848Z,33.40
2019-02-20T17:31:15.860Z,31.80
2019-02-20T17:35:20.863Z,22.83
2019-02-20T17:39:25.884Z,33.37
2019-02-20T17:43:30.931Z,23.73
2019-02-20T17:47:35.950Z,30.27
2019-02-20T17:51:41.255Z,26.77
2019-02-20T17:55:46.274Z,32.07
2019-02-20T17:59:52.375Z,28.83
2019-02-20T18:03:57.409Z,27.27
2019-02-20T18:08:04.094Z,29.23
2019-02-20T18:12:09.431Z,26.07
2019-02-20T18:16:14.545Z,31.50
2019-02-20T18:20:19.844Z,33.07
2019-02-20T18:24:26.097Z,30.67
2019-02-20T18:28:31.166Z,32.90
2019-02-20T18:32:36.183Z,30.03
2019-02-20T18:36:41.261Z,31.57
2019-02-20T18:40:46.448Z,24.53
2019-02-20T18:44:51.472Z,30.20
2019-02-20T18:48:56.948Z,36.43
2019-02-20T18:53:01.970Z,33.70
2019-02-20T18:57:06.968Z,29.63
2019-02-20T19:01:12.011Z,33.07
2019-02-20T19:05:18.830Z,30.60
2019-02-20T19:09:24.678Z,29.37
2019-02-20T19:13:47.958Z,28.50
2019-02-20T19:18:20.382Z,25.67
2019-02-20T19:22:43.483Z,29.83
2019-02-20T19:26:51.669Z,33.30
2019-02-20T19:31:14.198Z,28.23
2019-02-20T19:35:25.315Z,31.03
2019-02-20T19:39:36.087Z,29.60
2019-02-20T19:43:50.200Z,32.67
2019-02-20T19:48:16.367Z,33.93
2019-02-20T19:52:32.359Z,33.10
2019-02-20T19:57:02.357Z,32.17
2019-02-20T20:01:19.804Z,35.20
2019-02-20T20:05:53.158Z,33.70
2019-02-20T20:10:18.220Z,29.80
2019-02-20T20:14:44.771Z,34.83
2019-02-20T20:19:13.658Z,28.37
2019-02-20T20:23:50.966Z,32.63
2019-02-20T20:28:15.819Z,35.00
2019-02-20T20:32:52.573Z,40.27
2019-02-20T20:36:54.101Z,33.30
2019-02-20T20:41:04.831Z,37.13
2019-02-20T20:45:37.441Z,31.73
2019-02-20T20:49:51.314Z,31.00
2019-02-20T20:54:08.289Z,36.20
2019-02-20T20:58:28.176Z,34.87
2019-02-20T21:02:36.280Z,37.30
2019-02-20T21:06:56.466Z,33.43
2019-02-20T21:11:13.412Z,35.40
2019-02-20T21:15:39.200Z,39.03
2019-02-20T21:20:12.697Z,37.17
2019-02-20T21:24:29.592Z,39.17
2019-02-20T21:28:53.079Z,40.10
2019-02-20T21:33:20.672Z,34.23
2019-02-20T21:37:34.616Z,37.40
2019-02-20T21:41:57.544Z,38.47
2019-02-20T21:46:14.311Z,36.30
2019-02-20T21:50:34.355Z,38.17
2019-02-20T21:55:03.011Z,34.03
2019-02-20T21:59:38.988Z,34.77
2019-02-20T22:03:44.408Z,38.87
2019-02-20T22:08:01.332Z,43.70
2019-02-20T22:12:36.832Z,35.43
2019-02-20T22:16:50.716Z,41.80
2019-02-20T22:21:18.120Z,33.70
2019-02-20T22:25:26.204Z,35.90
2019-02-20T22:29:54.822Z,42.20
2019-02-20T22:34:05.699Z,36.40
2019-02-20T22:38:28.752Z,39.70
2019-02-20T22:42:56.380Z,37.83
2019-02-20T22:47:19.539Z,44.30
2019-02-20T22:51:27.711Z,40.87
2019-02-20T22:55:59.940Z,37.23
2019-02-20T23:00:43.004Z,40.53
2019-02-20T23:05:12.186Z,35.67
2019-02-20T23:09:46.208Z,36.50
2019-02-20T23:14:28.079Z,34.00
2019-02-20T23:18:33.092Z,41.30
2019-02-20T23:22:38.153Z,38.30
2019-02-20T23:26:43.151Z,42.50
2019-02-20T23:30:48.161Z,36.33
2019-02-20T23:34:53.175Z,34.87
2019-02-20T23:38:58.179Z,39.27
2019-02-20T23:43:03.231Z,41.20
2019-02-20T23:47:08.301Z,39.53
2019-02-20T23:51:14.458Z,41.70
2019-02-20T23:55:19.392Z,36.97
2019-02-20T23:59:24.493Z,37.80
